New Orleans, Louisiana
Traffic Map
Current Weather Conditions
New Orleans, Louisiana
Clear
Clear
49°
Feels Like: 42°
Wind Chill: 42° Ceiling: Unl
Heat Index: 49° Visibility: 10mi
Dew Point: 25° Wind: 18mph
Humidity: 39% Direction: 30° (NNE)
Pressure: 30.5in Gusts: 0mph
Raw Report DataKNEW 100153Z AUTO 03016KT 10SM CLR 09/M04 A3050 RMK AO2 SLP322 T00941039
Traffic Incident Summary
Active as of:
Severity:
Category:
InformationThere was an issue retrieving the traffic information for this location. Please try a different location or try again shortly.
Advertisements
Track Severe Weather on mobile